This is the latest recevied weather packets stored in our database for station/object LKPD. If no packets are shown the sender has not sent any weather packets the latest 1 day(s).
| Time | Temp. | Humidity | Pressure | Rain* | Wind** | Luminosity | Snow |
|---|---|---|---|---|---|---|---|
| 1836273903 | 12.22° C | 93% | 1023 hPa | - | 1.34 m/s, 50° | - | - |
| 1778023929 | 17.22° C | 67% | 1006 hPa | - | 7.6 m/s, 280° | - | - |
| 1778023181 | 17.22° C | 59% | - | - | 2.24 m/s, 220° | - | - |
| 1778022146 | 17.22° C | 59% | 1005 hPa | - | 2.24 m/s, 230° | - | - |
| 1778020329 | 16.11° C | 67% | 1004 hPa | - | 2.68 m/s, 110° | - | - |
| 1778019581 | 17.22° C | 59% | - | - | 3.13 m/s, 110° | - | - |
| 1778018541 | 16.11° C | 63% | 1004 hPa | - | 3.13 m/s, 110° | - | - |
| 1778016729 | 17.22° C | 67% | 1004 hPa | - | 2.24 m/s, 90° | - | - |
| 1778016032 | 17.22° C | 63% | - | - | 2.24 m/s, 90° | - | - |
| 1778014952 | 16.11° C | 72% | 1004 hPa | - | 1.34 m/s, 90° | - | - |
| 1778013137 | 16.11° C | 72% | 1004 hPa | - | 0.89 m/s, 0° | - | - |
| 1778012398 | 17.22° C | 67% | - | - | 0.89 m/s, 140° | - | - |
| 1778011360 | 17.22° C | 67% | 1004 hPa | - | 1.34 m/s, 120° | - | - |
| 1778009537 | 16.11° C | 72% | 1004 hPa | - | 2.24 m/s, 110° | - | - |
| 1778008827 | 17.78° C | 63% | - | - | 0.89 m/s, 100° | - | - |
| 1778007752 | 17.78° C | 63% | 1004 hPa | - | 0.89 m/s, 0° | - | - |
| 1778005937 | 17.78° C | 63% | 1004 hPa | - | 1.34 m/s, 280° | - | - |
| 1778005199 | 18.89° C | 59% | - | - | 4.02 m/s, 290° | - | - |
| 1778004139 | 18.89° C | 59% | 1004 hPa | - | 4.02 m/s, 280° | - | - |
| 1778002344 | 22.22° C | 46% | 1004 hPa | - | 5.81 m/s, 250° | - | - |
| 1778001582 | 22.78° C | 35% | - | - | 2.24 m/s, 140° | - | - |
| 1778000539 | 22.78° C | 38% | 1004 hPa | - | 0.89 m/s, 0° | - | - |
| 1777998744 | 23.89° C | 36% | 1004 hPa | - | 3.13 m/s, 150° | - | - |
| 1777998058 | 25° C | 31% | - | - | 4.02 m/s, 140° | - | - |
| 1777996939 | 23.89° C | 38% | 1004 hPa | - | 4.47 m/s, 130° | - | - |
* Rain since midnight (hover to see other rain measurements)
** Current wind speed in m/s (hover to see current wind gust speed)